createdAt,value
2023-03-28T00:00:09.025Z,1.00
2023-03-28T00:02:35.555Z,1.00
2023-03-28T00:05:08.964Z,1.00
2023-03-28T00:07:36.284Z,1.00
2023-03-28T00:10:03.850Z,1.00
2023-03-28T00:12:30.375Z,1.00
2023-03-28T00:14:57.742Z,1.00
2023-03-28T00:17:24.894Z,1.00
2023-03-28T00:19:53.405Z,1.00
2023-03-28T00:22:21.149Z,1.00
2023-03-28T00:24:48.794Z,1.00
2023-03-28T00:27:15.924Z,1.00
2023-03-28T00:29:42.467Z,1.00
2023-03-28T00:32:09.033Z,1.00
2023-03-28T00:34:35.610Z,1.00
2023-03-28T00:37:05.426Z,1.00
2023-03-28T00:39:34.487Z,1.00
2023-03-28T00:42:01.692Z,1.00
2023-03-28T00:44:47.211Z,1.00
2023-03-28T00:47:16.728Z,1.00
2023-03-28T00:49:44.402Z,1.00
2023-03-28T00:52:13.988Z,1.00
2023-03-28T00:54:40.617Z,1.00
2023-03-28T00:57:08.272Z,1.00
2023-03-28T00:59:36.364Z,1.00
2023-03-28T01:02:03.264Z,1.00
2023-03-28T01:04:46.443Z,1.00
2023-03-28T01:07:13.915Z,1.00
2023-03-28T01:09:40.454Z,1.00
2023-03-28T01:12:07.361Z,1.00
2023-03-28T01:14:35.321Z,1.00
2023-03-28T01:17:01.885Z,1.00
2023-03-28T01:19:42.761Z,1.00
2023-03-28T01:22:09.270Z,1.00
2023-03-28T01:24:56.203Z,1.00
2023-03-28T01:27:22.692Z,1.00
2023-03-28T01:30:04.635Z,1.00
2023-03-28T01:32:50.481Z,1.00
2023-03-28T01:35:36.683Z,1.00
2023-03-28T01:38:12.492Z,1.00
2023-03-28T01:40:50.733Z,1.00
2023-03-28T01:43:17.211Z,1.00
2023-03-28T01:46:13.193Z,1.00
2023-03-28T01:49:02.399Z,1.00
2023-03-28T01:51:46.903Z,1.00
2023-03-28T01:54:26.303Z,1.00
2023-03-28T01:57:02.103Z,1.00
2023-03-28T01:59:41.576Z,1.00
2023-03-28T02:02:34.625Z,1.00
2023-03-28T02:05:04.257Z,1.00
2023-03-28T02:07:31.857Z,1.00
2023-03-28T02:09:58.914Z,1.00
2023-03-28T02:12:34.681Z,1.00
2023-03-28T02:15:04.926Z,1.00
2023-03-28T02:17:33.629Z,1.00
2023-03-28T02:20:08.853Z,1.00
2023-03-28T02:22:38.491Z,1.00
2023-03-28T02:25:05.844Z,1.00
2023-03-28T02:27:34.036Z,1.00
2023-03-28T02:30:01.265Z,1.00
2023-03-28T02:32:27.879Z,1.00
2023-03-28T02:34:55.745Z,1.00
2023-03-28T02:37:29.388Z,1.00
2023-03-28T02:40:01.224Z,1.00
2023-03-28T02:42:37.094Z,1.00
2023-03-28T02:45:03.558Z,1.00
2023-03-28T02:47:44.742Z,1.00
2023-03-28T02:50:14.366Z,1.00
2023-03-28T02:52:51.898Z,1.00
2023-03-28T02:55:23.821Z,1.00
2023-03-28T02:57:52.556Z,1.00
2023-03-28T03:00:19.743Z,1.00
2023-03-28T03:02:54.103Z,1.00
2023-03-28T03:05:25.504Z,1.00
2023-03-28T03:07:52.252Z,1.00
2023-03-28T03:10:18.896Z,1.00
2023-03-28T03:12:45.851Z,1.00
2023-03-28T03:15:12.538Z,1.00
2023-03-28T03:17:39.214Z,1.00
2023-03-28T03:20:07.302Z,1.00
2023-03-28T03:22:34.577Z,1.00
2023-03-28T03:25:08.131Z,1.00
2023-03-28T03:27:35.767Z,1.00
2023-03-28T03:30:02.960Z,1.00
2023-03-28T03:32:29.502Z,1.00
2023-03-28T03:34:56.022Z,1.00
2023-03-28T03:37:22.620Z,1.00
2023-03-28T03:39:49.193Z,1.00
2023-03-28T03:42:15.766Z,1.00
2023-03-28T03:44:42.891Z,1.00
2023-03-28T03:47:09.551Z,1.00
2023-03-28T03:49:36.045Z,1.00
2023-03-28T03:52:02.565Z,1.00
2023-03-28T03:54:29.097Z,1.00
2023-03-28T03:56:55.861Z,1.00
2023-03-28T03:59:22.569Z,1.00
2023-03-28T04:01:49.158Z,1.00
2023-03-28T04:04:16.256Z,1.00
2023-03-28T04:06:42.821Z,1.00
2023-03-28T04:09:09.369Z,1.00
2023-03-28T04:11:36.137Z,1.00
2023-03-28T04:14:02.830Z,1.00
2023-03-28T04:16:29.800Z,1.00
2023-03-28T04:19:07.716Z,1.00
2023-03-28T04:21:35.380Z,1.00
2023-03-28T04:24:02.033Z,1.00
2023-03-28T04:26:29.087Z,1.00
2023-03-28T04:28:56.407Z,1.00
2023-03-28T04:31:29.481Z,1.00
2023-03-28T04:33:56.494Z,1.00
2023-03-28T04:36:25.747Z,1.00
2023-03-28T04:38:52.424Z,1.00
2023-03-28T04:41:19.037Z,1.00
2023-03-28T04:43:45.556Z,1.00
2023-03-28T04:46:12.183Z,1.00
2023-03-28T04:48:38.727Z,1.00
2023-03-28T04:51:05.827Z,1.00
2023-03-28T04:53:32.555Z,1.00
2023-03-28T04:56:00.063Z,1.00
2023-03-28T04:58:26.806Z,1.00
2023-03-28T05:00:53.948Z,1.00
2023-03-28T05:03:21.833Z,1.00
2023-03-28T05:05:49.122Z,1.00
2023-03-28T05:08:17.130Z,1.00
2023-03-28T05:10:46.704Z,1.00
2023-03-28T05:13:13.854Z,1.00
2023-03-28T05:15:40.483Z,1.00
2023-03-28T05:18:07.031Z,1.00
2023-03-28T05:20:33.538Z,1.00
2023-03-28T05:23:01.345Z,1.00
2023-03-28T05:25:27.925Z,1.00
2023-03-28T05:27:54.428Z,1.00
2023-03-28T05:30:21.030Z,1.00
2023-03-28T05:32:47.634Z,1.00
2023-03-28T05:35:15.273Z,1.00
2023-03-28T05:37:43.509Z,1.00
2023-03-28T05:40:11.581Z,1.00
2023-03-28T05:42:38.620Z,1.00
2023-03-28T05:45:06.072Z,1.00
2023-03-28T05:47:33.190Z,1.00
2023-03-28T05:49:59.731Z,1.00
2023-03-28T05:52:26.261Z,1.00
2023-03-28T05:54:52.909Z,1.00
2023-03-28T05:57:19.690Z,1.00
2023-03-28T05:59:47.058Z,1.00
2023-03-28T06:02:14.747Z,1.00
2023-03-28T06:04:41.451Z,1.00
2023-03-28T06:07:08.751Z,1.00
2023-03-28T06:09:36.008Z,1.00
2023-03-28T06:12:03.014Z,1.00
2023-03-28T06:14:29.623Z,1.00
2023-03-28T06:16:56.297Z,1.00
2023-03-28T06:19:23.153Z,1.00
2023-03-28T06:21:49.841Z,1.00
2023-03-28T06:24:16.325Z,1.00
2023-03-28T06:26:42.875Z,1.00
2023-03-28T06:29:09.425Z,1.00
2023-03-28T06:31:36.114Z,1.00
2023-03-28T06:34:02.778Z,1.00
2023-03-28T06:36:29.315Z,1.00
2023-03-28T06:38:58.267Z,1.00
2023-03-28T06:41:24.967Z,1.00
2023-03-28T06:43:51.507Z,1.00
2023-03-28T06:46:18.309Z,1.00
2023-03-28T06:48:44.914Z,1.00
2023-03-28T06:51:12.856Z,1.00
2023-03-28T06:53:39.429Z,1.00
2023-03-28T06:56:06.837Z,1.00
2023-03-28T06:58:33.353Z,1.00
2023-03-28T07:01:00.433Z,1.00
2023-03-28T07:03:27.248Z,1.00
2023-03-28T07:05:54.113Z,1.00
2023-03-28T07:08:21.313Z,1.00
2023-03-28T07:10:47.985Z,1.00
2023-03-28T07:13:15.665Z,1.00
2023-03-28T07:15:42.238Z,1.00
2023-03-28T07:18:11.907Z,1.00
2023-03-28T07:20:39.604Z,1.00
2023-03-28T07:23:06.483Z,1.00
2023-03-28T07:25:33.220Z,1.00
2023-03-28T07:27:59.852Z,1.00
2023-03-28T07:30:27.171Z,1.00
2023-03-28T07:33:05.231Z,1.00
2023-03-28T07:35:41.239Z,1.00
2023-03-28T07:38:08.130Z,1.00
2023-03-28T07:40:34.806Z,1.00
2023-03-28T07:43:01.525Z,1.00
2023-03-28T07:45:28.032Z,1.00
2023-03-28T07:47:54.622Z,1.00
2023-03-28T07:50:22.981Z,1.00
2023-03-28T07:52:57.308Z,1.00
2023-03-28T07:55:25.299Z,1.00
2023-03-28T07:57:52.337Z,1.00
2023-03-28T08:00:19.384Z,1.00
2023-03-28T08:02:46.184Z,1.00
2023-03-28T08:05:12.763Z,1.00
2023-03-28T08:07:42.054Z,1.00
2023-03-28T08:10:08.974Z,1.00
2023-03-28T08:12:35.708Z,1.00
2023-03-28T08:15:02.243Z,1.00
2023-03-28T08:17:28.924Z,1.00
2023-03-28T08:19:55.975Z,1.00
2023-03-28T08:22:22.545Z,1.00
2023-03-28T08:24:49.075Z,1.00
2023-03-28T08:27:15.748Z,1.00
2023-03-28T08:29:42.437Z,1.00
2023-03-28T08:32:08.950Z,1.00
2023-03-28T08:34:35.934Z,1.00
2023-03-28T08:37:02.517Z,1.00
2023-03-28T08:39:29.197Z,1.00
2023-03-28T08:42:06.197Z,1.00
2023-03-28T08:44:40.942Z,1.00
2023-03-28T08:47:13.477Z,1.00
2023-03-28T08:49:52.605Z,1.00
2023-03-28T08:52:20.348Z,1.00
2023-03-28T08:54:52.981Z,1.00
2023-03-28T08:57:21.854Z,1.00
2023-03-28T08:59:48.423Z,1.00
2023-03-28T09:02:19.577Z,1.00
2023-03-28T09:04:46.462Z,1.00
2023-03-28T09:07:18.985Z,1.00
2023-03-28T09:09:49.031Z,1.00
2023-03-28T09:12:36.413Z,1.00
2023-03-28T09:15:22.885Z,1.00
2023-03-28T09:18:07.979Z,1.00
2023-03-28T09:20:54.473Z,1.00
2023-03-28T09:23:39.863Z,1.00
2023-03-28T09:26:12.646Z,1.00
2023-03-28T09:28:39.203Z,1.00
2023-03-28T09:31:06.958Z,1.00
2023-03-28T09:33:35.629Z,1.00
2023-03-28T09:36:03.955Z,1.00
2023-03-28T09:38:53.500Z,1.00
2023-03-28T09:41:24.965Z,1.00
2023-03-28T09:43:54.069Z,1.00
2023-03-28T09:46:36.289Z,1.00
2023-03-28T09:49:02.976Z,1.00
2023-03-28T09:51:29.536Z,1.00
2023-03-28T09:53:56.117Z,1.00
2023-03-28T09:56:28.373Z,1.00
2023-03-28T09:58:56.386Z,1.00
2023-03-28T10:01:24.426Z,1.00
2023-03-28T10:03:55.809Z,1.00
2023-03-28T10:06:30.101Z,1.00
2023-03-28T10:09:15.467Z,1.00
2023-03-28T10:11:59.771Z,1.00
2023-03-28T10:14:37.133Z,1.00
2023-03-28T10:17:03.658Z,1.00
2023-03-28T10:19:33.400Z,1.00
2023-03-28T10:22:07.438Z,1.00
2023-03-28T10:24:34.452Z,1.00
2023-03-28T10:27:27.453Z,1.00
2023-03-28T10:29:56.389Z,1.00
2023-03-28T10:32:27.318Z,1.00
2023-03-28T10:35:21.385Z,1.00
2023-03-28T10:37:48.592Z,1.00
2023-03-28T10:40:18.915Z,1.00
2023-03-28T10:42:46.720Z,1.00
2023-03-28T10:45:33.547Z,1.00
2023-03-28T10:48:01.722Z,1.00
2023-03-28T10:50:30.940Z,1.00
2023-03-28T10:53:20.564Z,1.00
2023-03-28T10:56:06.697Z,1.00
2023-03-28T10:58:35.791Z,1.00
2023-03-28T11:01:09.790Z,1.00
2023-03-28T11:03:39.460Z,1.00
2023-03-28T11:06:09.944Z,1.00
2023-03-28T11:08:46.024Z,1.00
2023-03-28T11:11:22.082Z,1.00
2023-03-28T11:13:54.861Z,1.00
2023-03-28T11:16:40.182Z,1.00
2023-03-28T11:19:25.259Z,1.00
2023-03-28T11:22:12.104Z,1.00
2023-03-28T11:24:56.820Z,1.00
2023-03-28T11:27:42.322Z,1.00
2023-03-28T11:30:17.542Z,1.00
2023-03-28T11:32:47.581Z,1.00
2023-03-28T11:35:36.277Z,1.00
2023-03-28T11:38:22.496Z,1.00
2023-03-28T11:41:01.970Z,1.00
2023-03-28T11:43:42.451Z,1.00
2023-03-28T11:46:11.261Z,1.00
2023-03-28T11:48:43.734Z,1.00
2023-03-28T11:51:17.815Z,1.00
2023-03-28T11:53:44.545Z,1.00
2023-03-28T11:56:26.996Z,1.00
2023-03-28T11:58:56.077Z,1.00
2023-03-28T12:01:28.548Z,1.00
2023-03-28T12:04:11.359Z,1.00
2023-03-28T12:07:02.274Z,1.00
2023-03-28T12:09:35.757Z,1.00
2023-03-28T12:12:08.575Z,1.00
2023-03-28T12:14:52.147Z,1.00
2023-03-28T12:17:24.245Z,1.00
2023-03-28T12:19:53.721Z,1.50
2023-03-28T12:22:40.675Z,1.00
2023-03-28T12:25:24.515Z,1.00
2023-03-28T12:28:01.520Z,1.00
2023-03-28T12:30:40.817Z,3.20
2023-03-28T12:33:18.455Z,2.90
2023-03-28T12:35:45.184Z,1.00
2023-03-28T12:38:32.202Z,10.20
2023-03-28T12:41:03.882Z,1.00
2023-03-28T12:43:42.731Z,1.00
2023-03-28T12:46:11.928Z,1.00
2023-03-28T12:48:51.890Z,7.30
2023-03-28T12:51:30.198Z,14.00
2023-03-28T12:54:20.300Z,10.80
2023-03-28T12:56:47.547Z,4.70
2023-03-28T12:59:33.439Z,11.90
2023-03-28T13:02:02.101Z,1.00
2023-03-28T13:04:32.643Z,3.20
2023-03-28T13:07:05.422Z,5.70
2023-03-28T13:09:34.769Z,5.00
2023-03-28T13:12:03.361Z,20.60
2023-03-28T13:14:36.355Z,9.90
2023-03-28T13:17:21.944Z,10.80
2023-03-28T13:19:53.048Z,15.60
2023-03-28T13:22:40.406Z,17.70
2023-03-28T13:25:21.068Z,19.40
2023-03-28T13:27:52.216Z,14.60
2023-03-28T13:30:20.039Z,19.70
2023-03-28T13:32:49.330Z,17.10
2023-03-28T13:35:35.129Z,25.10
2023-03-28T13:38:20.556Z,28.00
2023-03-28T13:40:51.206Z,28.50
2023-03-28T13:43:25.175Z,45.00
2023-03-28T13:45:54.517Z,28.60
2023-03-28T13:48:22.681Z,41.90
2023-03-28T13:50:49.442Z,17.30
2023-03-28T13:53:15.972Z,18.10
2023-03-28T13:55:43.503Z,23.10
2023-03-28T13:58:13.261Z,24.80
2023-03-28T14:00:40.792Z,21.90
2023-03-28T14:03:13.454Z,27.40
2023-03-28T14:05:44.351Z,19.70
2023-03-28T14:08:13.911Z,24.30
2023-03-28T14:10:44.416Z,24.80
2023-03-28T14:13:12.947Z,20.90
2023-03-28T14:15:40.603Z,18.60
2023-03-28T14:18:15.037Z,17.70
2023-03-28T14:20:42.266Z,18.00
2023-03-28T14:23:21.980Z,22.20
2023-03-28T14:25:48.763Z,13.40
2023-03-28T14:28:15.337Z,16.10
2023-03-28T14:30:42.287Z,5.60
2023-03-28T14:33:14.277Z,7.90
2023-03-28T14:35:46.088Z,18.70
2023-03-28T14:38:14.042Z,17.00
2023-03-28T14:40:41.851Z,22.10
2023-03-28T14:43:13.251Z,25.80
2023-03-28T14:45:42.500Z,20.00
2023-03-28T14:48:13.214Z,18.00
2023-03-28T14:50:40.833Z,23.40
2023-03-28T14:53:09.393Z,14.30
2023-03-28T14:55:37.481Z,18.50
2023-03-28T14:58:05.458Z,23.40
2023-03-28T15:00:36.937Z,17.70
2023-03-28T15:03:06.135Z,22.40
2023-03-28T15:05:33.455Z,23.30
2023-03-28T15:08:01.147Z,21.40
2023-03-28T15:10:27.887Z,14.10
2023-03-28T15:13:18.361Z,20.90
2023-03-28T15:15:47.067Z,18.50
2023-03-28T15:18:15.597Z,8.60
2023-03-28T15:20:43.834Z,4.60
2023-03-28T15:23:19.553Z,3.50
2023-03-28T15:25:46.607Z,15.20
2023-03-28T15:28:16.361Z,8.40
2023-03-28T15:30:44.199Z,6.10
2023-03-28T15:33:14.103Z,12.20
2023-03-28T15:35:43.474Z,6.30
2023-03-28T15:38:13.190Z,15.80
2023-03-28T15:40:41.812Z,11.80
2023-03-28T15:43:27.819Z,18.00
2023-03-28T15:45:56.841Z,13.10
2023-03-28T15:48:23.886Z,9.70
2023-03-28T15:50:52.268Z,11.50
2023-03-28T15:53:19.158Z,10.30
2023-03-28T15:55:47.125Z,10.60
2023-03-28T15:58:15.435Z,14.00
2023-03-28T16:00:52.708Z,12.90
2023-03-28T16:03:34.243Z,15.80
2023-03-28T16:06:10.085Z,4.90
2023-03-28T16:08:39.421Z,1.00
2023-03-28T16:11:06.900Z,17.60
2023-03-28T16:13:34.084Z,12.50
2023-03-28T16:16:00.961Z,13.60
2023-03-28T16:18:27.721Z,17.90
2023-03-28T16:20:54.233Z,9.10
2023-03-28T16:23:21.029Z,8.30
2023-03-28T16:25:47.653Z,13.70
2023-03-28T16:28:16.381Z,3.40
2023-03-28T16:30:42.958Z,4.50
2023-03-28T16:33:09.554Z,1.00
2023-03-28T16:35:36.575Z,1.00
2023-03-28T16:38:03.432Z,1.00
2023-03-28T16:40:30.127Z,11.30
2023-03-28T16:42:56.681Z,13.50
2023-03-28T16:45:23.684Z,10.90
2023-03-28T16:47:50.272Z,13.50
2023-03-28T16:50:17.050Z,13.20
2023-03-28T16:52:43.613Z,4.40
2023-03-28T16:55:11.854Z,2.80
2023-03-28T16:57:38.544Z,1.00
2023-03-28T17:00:06.144Z,1.00
2023-03-28T17:02:32.916Z,1.00
2023-03-28T17:04:59.664Z,1.00
2023-03-28T17:07:26.677Z,6.60
2023-03-28T17:09:53.763Z,1.00
2023-03-28T17:12:21.180Z,1.00
2023-03-28T17:14:47.956Z,3.60
2023-03-28T17:17:15.004Z,1.00
2023-03-28T17:19:41.568Z,1.00
2023-03-28T17:22:08.052Z,7.30
2023-03-28T17:24:34.709Z,12.10
2023-03-28T17:27:01.408Z,1.00
2023-03-28T17:29:28.473Z,1.00
2023-03-28T17:31:55.087Z,1.00
2023-03-28T17:34:21.914Z,1.00
2023-03-28T17:36:49.589Z,1.00
2023-03-28T17:39:16.528Z,1.00
2023-03-28T17:41:43.082Z,1.00
2023-03-28T17:44:09.783Z,1.00
2023-03-28T17:46:37.064Z,1.00
2023-03-28T17:49:03.617Z,1.00
2023-03-28T17:51:30.192Z,1.00
2023-03-28T17:53:56.861Z,1.00
2023-03-28T17:56:24.185Z,1.00
2023-03-28T17:58:50.685Z,1.00
2023-03-28T18:01:18.595Z,1.00
2023-03-28T18:03:46.165Z,1.00
2023-03-28T18:06:13.775Z,1.00
2023-03-28T18:08:40.606Z,1.00
2023-03-28T18:11:08.398Z,1.00
2023-03-28T18:13:35.734Z,1.00
2023-03-28T18:16:05.402Z,1.00
2023-03-28T18:18:32.591Z,1.00
2023-03-28T18:20:59.274Z,1.00
2023-03-28T18:23:25.802Z,1.00
2023-03-28T18:25:54.286Z,1.00
2023-03-28T18:28:23.850Z,1.00
2023-03-28T18:30:51.105Z,1.00
2023-03-28T18:33:18.307Z,1.00
2023-03-28T18:35:47.815Z,1.00
2023-03-28T18:38:14.604Z,1.00
2023-03-28T18:40:41.512Z,1.00
2023-03-28T18:43:09.561Z,1.00
2023-03-28T18:45:36.653Z,1.00
2023-03-28T18:48:03.637Z,1.00
2023-03-28T18:50:32.346Z,1.00
2023-03-28T18:52:58.851Z,1.00
2023-03-28T18:55:25.513Z,1.00
2023-03-28T18:57:52.659Z,1.00
2023-03-28T19:00:19.757Z,1.00
2023-03-28T19:02:47.872Z,1.00
2023-03-28T19:05:15.334Z,1.00
2023-03-28T19:07:42.518Z,1.00
2023-03-28T19:10:09.920Z,1.00
2023-03-28T19:12:36.697Z,1.00
2023-03-28T19:15:06.970Z,1.00
2023-03-28T19:17:35.604Z,1.00
2023-03-28T19:20:07.302Z,1.00
2023-03-28T19:22:34.975Z,1.00
2023-03-28T19:25:01.543Z,1.00
2023-03-28T19:27:28.054Z,1.00
2023-03-28T19:29:54.561Z,1.00
2023-03-28T19:32:21.316Z,1.00
2023-03-28T19:34:47.872Z,1.00
2023-03-28T19:37:14.446Z,1.00
2023-03-28T19:39:40.943Z,1.00
2023-03-28T19:42:07.507Z,1.00
2023-03-28T19:44:34.082Z,1.00
2023-03-28T19:47:00.759Z,2.90
2023-03-28T19:49:27.306Z,1.90
2023-03-28T19:51:54.622Z,1.00
2023-03-28T19:54:21.552Z,1.00
2023-03-28T19:56:49.327Z,1.00
2023-03-28T19:59:15.894Z,1.00
2023-03-28T20:01:43.478Z,1.00
2023-03-28T20:04:10.886Z,6.40
2023-03-28T20:06:37.438Z,7.40
2023-03-28T20:09:03.930Z,1.00
2023-03-28T20:11:30.776Z,1.00
2023-03-28T20:13:57.512Z,1.00
2023-03-28T20:16:24.251Z,1.00
2023-03-28T20:18:50.821Z,13.50
2023-03-28T20:21:17.320Z,12.90
2023-03-28T20:23:44.039Z,14.30
2023-03-28T20:26:15.396Z,18.30
2023-03-28T20:28:42.421Z,16.00
2023-03-28T20:31:10.146Z,21.60
2023-03-28T20:33:38.289Z,28.60
2023-03-28T20:36:06.200Z,17.40
2023-03-28T20:38:32.814Z,25.40
2023-03-28T20:41:00.020Z,14.70
2023-03-28T20:43:29.355Z,18.60
2023-03-28T20:45:57.426Z,11.20
2023-03-28T20:48:36.907Z,5.60
2023-03-28T20:51:08.229Z,6.10
2023-03-28T20:53:34.813Z,9.30
2023-03-28T20:56:04.934Z,11.40
2023-03-28T20:58:32.335Z,6.10
2023-03-28T21:01:00.413Z,16.30
2023-03-28T21:03:39.439Z,6.50
2023-03-28T21:06:06.546Z,14.60
2023-03-28T21:08:36.229Z,10.70
2023-03-28T21:11:03.904Z,19.70
2023-03-28T21:13:31.696Z,1.00
2023-03-28T21:15:58.309Z,1.00
2023-03-28T21:18:25.123Z,7.30
2023-03-28T21:20:51.973Z,8.40
2023-03-28T21:23:18.573Z,4.10
2023-03-28T21:25:45.406Z,6.20
2023-03-28T21:28:12.558Z,1.10
2023-03-28T21:30:40.285Z,1.00
2023-03-28T21:33:07.114Z,1.00
2023-03-28T21:35:34.731Z,1.00
2023-03-28T21:38:01.700Z,3.00
2023-03-28T21:40:28.342Z,1.50
2023-03-28T21:42:54.980Z,10.50
2023-03-28T21:45:21.860Z,1.00
2023-03-28T21:47:50.905Z,1.00
2023-03-28T21:50:18.072Z,1.00
2023-03-28T21:52:44.629Z,1.00
2023-03-28T21:55:11.284Z,1.00
2023-03-28T21:57:37.866Z,1.00
2023-03-28T22:00:14.624Z,1.00
2023-03-28T22:02:41.867Z,1.00
2023-03-28T22:05:18.949Z,3.10
2023-03-28T22:07:55.740Z,1.00
2023-03-28T22:10:26.423Z,1.00
2023-03-28T22:12:53.734Z,1.00
2023-03-28T22:15:20.278Z,1.00
2023-03-28T22:17:46.871Z,1.00
2023-03-28T22:20:14.457Z,1.00
2023-03-28T22:22:45.150Z,9.70
2023-03-28T22:25:12.798Z,1.00
2023-03-28T22:27:39.734Z,16.00
2023-03-28T22:30:10.387Z,1.20
2023-03-28T22:32:39.222Z,4.20
2023-03-28T22:35:06.490Z,1.00
2023-03-28T22:37:34.168Z,1.00
2023-03-28T22:40:01.643Z,1.40
2023-03-28T22:42:28.718Z,1.00
2023-03-28T22:44:55.226Z,1.00
2023-03-28T22:47:21.772Z,8.60
2023-03-28T22:49:48.268Z,4.80
2023-03-28T22:52:14.824Z,1.00
2023-03-28T22:54:42.585Z,1.00
2023-03-28T22:57:09.573Z,1.00
2023-03-28T22:59:36.424Z,1.00
2023-03-28T23:02:03.555Z,1.00
2023-03-28T23:04:30.270Z,1.00
2023-03-28T23:06:58.536Z,1.00
2023-03-28T23:09:27.750Z,1.00
2023-03-28T23:11:54.952Z,3.40
2023-03-28T23:14:22.063Z,1.00
2023-03-28T23:16:48.875Z,1.00
2023-03-28T23:19:16.341Z,1.00
2023-03-28T23:21:43.059Z,1.00
2023-03-28T23:24:10.130Z,1.00
2023-03-28T23:26:36.642Z,1.00
2023-03-28T23:29:05.266Z,8.00
2023-03-28T23:31:31.821Z,1.00
2023-03-28T23:33:58.531Z,1.00
2023-03-28T23:36:25.982Z,1.00
2023-03-28T23:38:52.996Z,1.00
2023-03-28T23:41:19.535Z,1.00
2023-03-28T23:43:46.173Z,1.00
2023-03-28T23:46:12.702Z,3.00
2023-03-28T23:48:39.279Z,1.00
2023-03-28T23:51:06.540Z,9.60
2023-03-28T23:53:33.138Z,3.70
2023-03-28T23:55:59.924Z,1.00
2023-03-28T23:58:26.560Z,1.00
